Jiangling, China
Current Conditions -  °F | °C
As of 5:00 AM on Wednesday 26 Nov 2014 (Local Time) from ZHHH Reporting Station
Haze Haze  
Wind Chill: 50°   Ceiling: 4000
Heat Index: 50°   Visibility: 1mi
Dew Point: 48°   Wind: 4mph
Humidity: 94%   Direction: 100°E
Pressure: 30.06"   Gusts: NA
Location:  30.33°N, 112.18°E
Report Text: ZHHH 252100Z 10002MPS 1600 BR OVC040 10/09 Q1018 NOSIG
Loading
Personal Weather Stations






























Interactive Weather Map New forecast layout! Learn more

10-Day Weather Forecast

Advertisements
Track Severe Weather on mobile